^^
Station Historical Data
Daily Summary for February 11, 2017 Units:  English    Metric   Both
« Previous Day
Next Day »
Daily Weekly Monthly Yearly Custom
  High: Low: Average:
Temperature: 44.5 °F 25.4 °F 34.1 °F
Dew Point: 30.5 °F 17.3 °F 24 °F
Humidity: 80 % 49 % 67 %
Wind Speed: 6.6 mph 0.0 mph 0.5 mph
Wind Gust: 8.1 mph - -
Wind:- - SSW
Pressure: 30.09 in 29.93 in -
Precipitation: 0.18 in    
Historical Graphs
 
 
Tabular Data for February 11, 2017
Time Temperature Dew Point Pressure Wind Wind Speed Wind Gust Humidity Rainfall Rate (Hourly) solar Conditions
00:03 27.9 °F 17.3 °F 30.07 in Calm     64 % 0.00 in 0.0 W/m2 CLR
00:08 27.9 °F 17.6 °F 30.06 in Calm     65 % 0.00 in 0.0 W/m2 CLR
00:13 28.0 °F 17.7 °F 30.06 in SSE 0.1 mph 2.3 mph 65 % 0.00 in 0.0 W/m2 CLR
00:18 28.1 °F 17.8 °F 30.06 in SSE 0.2 mph 2.3 mph 65 % 0.00 in 0.0 W/m2 CLR
00:23 28.2 °F 17.9 °F 30.06 in SSE 0.2 mph 2.3 mph 65 % 0.00 in 0.0 W/m2 CLR
00:28 28.2 °F 17.9 °F 30.05 in Calm     65 % 0.00 in 0.0 W/m2 CLR
00:33 28.2 °F 18.3 °F 30.04 in South 0.2 mph 1.2 mph 66 % 0.00 in 0.0 W/m2 CLR
00:38 28.2 °F 18.3 °F 30.05 in South 0.2 mph 1.2 mph 66 % 0.00 in 0.0 W/m2 CLR
00:43 28.3 °F 18.0 °F 30.05 in South 1.0 mph 3.5 mph 65 % 0.00 in 0.0 W/m2 CLR
00:48 28.4 °F 18.1 °F 30.04 in Calm     65 % 0.00 in 0.0 W/m2 CLR
00:53 28.4 °F 18.1 °F 30.03 in Calm     65 % 0.00 in 0.0 W/m2 CLR
00:58 28.4 °F 18.1 °F 30.03 in Calm     65 % 0.00 in 0.0 W/m2 CLR
01:03 28.4 °F 18.5 °F 30.02 in Calm     66 % 0.00 in 0.0 W/m2 CLR
01:08 28.4 °F 18.5 °F 30.02 in South 0.1 mph 2.3 mph 66 % 0.00 in 0.0 W/m2 CLR
01:13 28.5 °F 18.6 °F 30.02 in South 0.2 mph 1.2 mph 66 % 0.00 in 0.0 W/m2 CLR
01:18 28.6 °F 18.7 °F 30.02 in Calm     66 % 0.00 in 0.0 W/m2 CLR
01:23 28.6 °F 18.7 °F 30.03 in South 0.1 mph 1.2 mph 66 % 0.00 in 0.0 W/m2 CLR
01:28 28.7 °F 18.8 °F 30.02 in South 0.1 mph 2.0 mph 66 % 0.00 in 0.0 W/m2 CLR
01:33 28.7 °F 18.8 °F 30.02 in South 0.2 mph 2.0 mph 66 % 0.00 in 0.0 W/m2 CLR
01:38 28.7 °F 18.8 °F 30.02 in South 0.4 mph 2.3 mph 66 % 0.00 in 0.0 W/m2 CLR
01:43 28.7 °F 18.8 °F 30.02 in South 0.7 mph 1.2 mph 66 % 0.00 in 0.0 W/m2 CLR
01:48 28.7 °F 18.8 °F 30.02 in Calm     66 % 0.00 in 0.0 W/m2 CLR
01:53 28.6 °F 19.0 °F 30.02 in Calm     67 % 0.00 in 0.0 W/m2 CLR
01:58 28.6 °F 19.0 °F 30.03 in Calm     67 % 0.00 in 0.0 W/m2 CLR
02:03 28.5 °F 18.9 °F 30.02 in South 0.2 mph 1.0 mph 67 % 0.00 in 0.0 W/m2 CLR
02:08 28.6 °F 19.0 °F 30.02 in Calm     67 % 0.00 in 0.0 W/m2 CLR
02:13 28.7 °F 19.1 °F 30.02 in South 0.6 mph 2.3 mph 67 % 0.00 in 0.0 W/m2 CLR
02:18 28.8 °F 19.2 °F 30.01 in Calm   1.2 mph 67 % 0.00 in 0.0 W/m2 CLR
02:24 28.8 °F 19.2 °F 30.01 in Calm   1.0 mph 67 % 0.00 in 0.0 W/m2 CLR
02:29 28.7 °F 19.1 °F 30.01 in SSE 0.1 mph 1.0 mph 67 % 0.00 in 0.0 W/m2 CLR
02:34 28.7 °F 19.1 °F 30.00 in SSE 0.2 mph 2.3 mph 67 % 0.00 in 0.0 W/m2 CLR
02:39 28.6 °F 19.0 °F 30.00 in Calm     67 % 0.00 in 0.0 W/m2 CLR
02:44 28.4 °F 19.2 °F 30.00 in Calm   1.2 mph 68 % 0.00 in 0.0 W/m2 CLR
02:49 28.3 °F 19.1 °F 30.00 in Calm     68 % 0.00 in 0.0 W/m2 CLR
02:54 28.3 °F 19.1 °F 30.00 in Calm     68 % 0.00 in 0.0 W/m2 CLR
02:59 28.2 °F 19.0 °F 29.99 in Calm     68 % 0.00 in 0.0 W/m2 CLR
03:04 28.0 °F 18.8 °F 29.99 in Calm     68 % 0.00 in 0.0 W/m2 CLR
03:09 27.8 °F 18.6 °F 29.99 in Calm     68 % 0.00 in 0.0 W/m2 CLR
03:14 27.6 °F 18.8 °F 29.99 in Calm     69 % 0.00 in 0.0 W/m2 CLR
03:19 27.4 °F 18.6 °F 29.99 in Calm     69 % 0.00 in 0.0 W/m2 CLR
03:24 27.2 °F 18.7 °F 29.99 in Calm     70 % 0.00 in 0.0 W/m2 CLR
03:29 27.0 °F 18.8 °F 29.99 in Calm     71 % 0.00 in 0.0 W/m2 CLR
03:34 26.8 °F 18.7 °F 29.99 in Calm     71 % 0.00 in 0.0 W/m2 CLR
03:39 26.7 °F 18.9 °F 29.99 in Calm     72 % 0.00 in 0.0 W/m2 CLR
03:44 26.7 °F 19.2 °F 30.00 in Calm     73 % 0.00 in 0.0 W/m2 CLR
03:49 26.7 °F 19.2 °F 29.99 in Calm     73 % 0.00 in 0.0 W/m2 CLR
03:54 26.6 °F 19.1 °F 29.99 in Calm     73 % 0.00 in 0.0 W/m2 CLR
03:59 26.7 °F 19.2 °F 29.99 in Calm     73 % 0.00 in 0.0 W/m2 CLR
04:04 26.8 °F 19.3 °F 29.99 in Calm   1.2 mph 73 % 0.00 in 0.0 W/m2 CLR
04:09 26.8 °F 19.3 °F 29.98 in Calm     73 % 0.00 in 0.0 W/m2 CLR
04:14 26.8 °F 19.3 °F 29.98 in Calm     73 % 0.00 in 0.0 W/m2 CLR
04:19 26.9 °F 19.7 °F 29.99 in Calm     74 % 0.00 in 0.0 W/m2 CLR
04:24 26.9 °F 19.7 °F 29.98 in Calm     74 % 0.00 in 0.0 W/m2 CLR
04:29 26.9 °F 19.7 °F 29.99 in Calm     74 % 0.00 in 0.0 W/m2 CLR
04:34 27.0 °F 19.8 °F 29.99 in Calm     74 % 0.00 in 0.0 W/m2 CLR
04:39 26.8 °F 19.6 °F 29.98 in Calm     74 % 0.00 in 0.0 W/m2 CLR
04:44 26.8 °F 19.6 °F 29.98 in Calm     74 % 0.00 in 0.0 W/m2 CLR
04:49 26.7 °F 19.5 °F 29.98 in Calm     74 % 0.00 in 0.0 W/m2 CLR
04:54 26.7 °F 19.5 °F 29.97 in Calm     74 % 0.00 in 0.0 W/m2 CLR
04:59 26.7 °F 19.5 °F 29.97 in Calm     74 % 0.00 in 0.0 W/m2 CLR
05:04 26.6 °F 19.4 °F 29.98 in Calm     74 % 0.00 in 0.0 W/m2 CLR
05:09 26.6 °F 19.7 °F 29.98 in Calm     75 % 0.00 in 0.0 W/m2 CLR
05:14 26.4 °F 19.5 °F 29.98 in Calm     75 % 0.00 in 0.0 W/m2 CLR
05:19 26.2 °F 19.4 °F 29.98 in Calm     75 % 0.00 in 0.0 W/m2 CLR
05:24 25.9 °F 19.1 °F 29.98 in Calm     75 % 0.00 in 0.0 W/m2 CLR
05:29 25.7 °F 19.2 °F 29.98 in Calm     76 % 0.00 in 0.0 W/m2 CLR
05:34 25.7 °F 19.2 °F 29.97 in Calm     76 % 0.00 in 0.0 W/m2 CLR
05:39 25.7 °F 19.2 °F 29.97 in Calm     76 % 0.00 in 0.0 W/m2 CLR
05:44 25.8 °F 19.3 °F 29.97 in Calm     76 % 0.00 in 0.0 W/m2 CLR
05:49 25.9 °F 19.7 °F 29.97 in Calm     77 % 0.00 in 0.0 W/m2 CLR
05:54 26.0 °F 19.8 °F 29.97 in Calm     77 % 0.00 in 0.0 W/m2 CLR
05:59 26.0 °F 19.8 °F 29.97 in Calm     77 % 0.00 in 0.0 W/m2 CLR
06:05 25.9 °F 19.7 °F 29.97 in Calm     77 % 0.00 in 0.0 W/m2 CLR
06:10 25.9 °F 19.7 °F 29.97 in Calm     77 % 0.00 in 0.0 W/m2 CLR
06:15 25.9 °F 19.7 °F 29.97 in Calm     77 % 0.00 in 0.0 W/m2 CLR
06:20 25.7 °F 19.5 °F 29.97 in Calm     77 % 0.00 in 0.0 W/m2 CLR
06:25 25.8 °F 19.9 °F 29.96 in Calm     78 % 0.00 in 0.0 W/m2 CLR
06:30 25.8 °F 19.9 °F 29.97 in Calm     78 % 0.00 in 0.0 W/m2 CLR
06:35 25.7 °F 19.8 °F 29.96 in Calm     78 % 0.00 in 0.0 W/m2 CLR
06:40 25.7 °F 19.8 °F 29.97 in Calm     78 % 0.00 in 0.0 W/m2 CLR
06:45 25.7 °F 19.8 °F 29.96 in Calm     78 % 0.00 in 0.0 W/m2 CLR
06:50 25.7 °F 19.8 °F 29.97 in Calm     78 % 0.00 in 0.0 W/m2 CLR
06:55 25.4 °F 19.8 °F 29.97 in Calm     79 % 0.00 in 0.0 W/m2 CLR
07:00 25.4 °F 19.8 °F 29.96 in Calm     79 % 0.00 in 0.0 W/m2 CLR
07:05 25.5 °F 19.9 °F 29.96 in Calm     79 % 0.00 in 0.0 W/m2 CLR
07:10 25.6 °F 20.0 °F 29.96 in Calm     79 % 0.00 in 5.0 W/m2 CLR
07:15 25.7 °F 20.1 °F 29.96 in Calm     79 % 0.00 in 9.0 W/m2 CLR
07:20 25.7 °F 20.1 °F 29.97 in Calm     79 % 0.00 in 11.0 W/m2 CLR
07:25 25.5 °F 19.9 °F 29.97 in Calm     79 % 0.00 in 19.0 W/m2 CLR
07:30 25.7 °F 20.4 °F 29.96 in Calm   1.2 mph 80 % 0.00 in 21.0 W/m2 CLR
07:35 25.8 °F 20.5 °F 29.97 in Calm     80 % 0.00 in 33.0 W/m2 CLR
07:40 25.9 °F 20.3 °F 29.97 in Calm     79 % 0.00 in 35.0 W/m2 CLR
07:45 26.0 °F 20.7 °F 29.97 in Calm     80 % 0.00 in 47.0 W/m2 CLR
07:50 26.2 °F 20.9 °F 29.98 in SE 1.0 mph 1.2 mph 80 % 0.00 in 47.0 W/m2 CLR
07:55 26.4 °F 21.1 °F 29.98 in SE 0.2 mph 2.3 mph 80 % 0.00 in 51.0 W/m2 FEW
08:00 26.4 °F 20.8 °F 29.98 in Calm     79 % 0.00 in 60.0 W/m2 FEW
08:05 26.6 °F 21.0 °F 29.98 in ENE 0.7 mph 2.3 mph 79 % 0.00 in 76.0 W/m2 FEW
08:10 26.9 °F 21.3 °F 29.98 in NE 1.5 mph 3.5 mph 79 % 0.00 in 81.0 W/m2 FEW
08:15 27.1 °F 21.5 °F 29.98 in NE 0.2 mph 1.0 mph 79 % 0.00 in 79.0 W/m2 FEW
08:20 27.3 °F 21.3 °F 29.98 in NE 0.9 mph 2.3 mph 78 % 0.00 in 77.0 W/m2 SCT
08:25 27.3 °F 21.0 °F 29.98 in Calm   1.2 mph 77 % 0.00 in 72.0 W/m2 SCT
08:30 27.6 °F 21.3 °F 29.98 in Calm   1.2 mph 77 % 0.00 in 97.0 W/m2 SCT
08:35 27.6 °F 21.3 °F 29.98 in Calm     77 % 0.00 in 155.0 W/m2 CLR
08:40 28.1 °F 21.8 °F 29.98 in NNE 0.8 mph 2.3 mph 77 % 0.00 in 155.0 W/m2 CLR
08:45 28.4 °F 21.8 °F 29.98 in Calm     76 % 0.00 in 193.0 W/m2 CLR
08:50 28.6 °F 21.7 °F 29.98 in Calm     75 % 0.00 in 274.0 W/m2 CLR
08:56 29.5 °F 22.6 °F 29.98 in Calm     75 % 0.00 in 158.0 W/m2 FEW
09:01 29.4 °F 22.1 °F 29.98 in Calm     74 % 0.00 in 118.0 W/m2 SCT
09:06 29.1 °F 21.8 °F 29.98 in Calm     74 % 0.00 in 137.0 W/m2 SCT
09:11 29.9 °F 22.6 °F 29.98 in NNE 1.5 mph 2.3 mph 74 % 0.00 in 246.0 W/m2 CLR
09:16 30.0 °F 22.4 °F 29.98 in NNE 1.0 mph 1.2 mph 73 % 0.00 in 95.0 W/m2 BKN
09:21 30.0 °F 22.7 °F 29.98 in Calm     74 % 0.00 in 123.0 W/m2 BKN
09:26 30.3 °F 22.7 °F 29.98 in Calm     73 % 0.00 in 142.0 W/m2 FEW
09:31 30.4 °F 22.8 °F 29.99 in Calm   1.2 mph 73 % 0.00 in 130.0 W/m2 BKN
09:36 30.7 °F 23.1 °F 29.99 in NNE 1.7 mph 3.5 mph 73 % 0.00 in 160.0 W/m2 SCT
09:41 30.7 °F 23.1 °F 29.99 in North 2.9 mph 3.5 mph 73 % 0.00 in 269.0 W/m2 CLR
09:46 31.1 °F 23.1 °F 29.99 in North 1.9 mph 3.5 mph 72 % 0.00 in 278.0 W/m2 CLR
09:51 31.5 °F 23.5 °F 29.98 in North 1.5 mph 2.3 mph 72 % 0.00 in 392.0 W/m2 CLR
09:56 32.3 °F 23.6 °F 29.99 in North 0.6 mph 2.3 mph 70 % 0.00 in 241.0 W/m2 FEW
10:01 31.9 °F 23.2 °F 29.99 in North 1.9 mph 3.5 mph 70 % 0.00 in 185.0 W/m2 SCT
10:06 32.3 °F 23.6 °F 29.99 in North 1.7 mph 3.5 mph 70 % 0.00 in 299.0 W/m2 FEW
10:11 32.7 °F 24.0 °F 29.99 in Calm   1.2 mph 70 % 0.00 in 459.0 W/m2 CLR
10:16 32.9 °F 23.8 °F 29.99 in North 0.7 mph 2.3 mph 69 % 0.00 in 464.0 W/m2 CLR
10:21 33.2 °F 23.8 °F 29.99 in Calm     68 % 0.00 in 329.0 W/m2 CLR
10:26 33.2 °F 23.8 °F 29.98 in North 0.2 mph 1.2 mph 68 % 0.00 in 230.0 W/m2 SCT
10:31 33.4 °F 23.6 °F 29.99 in North 0.6 mph 1.2 mph 67 % 0.00 in 239.0 W/m2 SCT
10:36 33.6 °F 24.2 °F 29.99 in North 1.0 mph 3.5 mph 68 % 0.00 in 223.0 W/m2 SCT
10:41 34.0 °F 24.2 °F 29.98 in Calm     67 % 0.00 in 274.0 W/m2 SCT
10:46 34.6 °F 24.0 °F 29.98 in Calm   3.5 mph 65 % 0.00 in 373.0 W/m2 CLR
10:51 35.1 °F 24.5 °F 29.98 in Calm     65 % 0.00 in 295.0 W/m2 FEW
10:56 35.2 °F 24.2 °F 29.98 in NNW 0.1 mph 1.0 mph 64 % 0.00 in 283.0 W/m2 SCT
11:01 35.2 °F 23.9 °F 29.98 in NNW 0.2 mph 3.5 mph 63 % 0.00 in 315.0 W/m2 FEW
11:06 35.6 °F 24.6 °F 29.99 in Calm     64 % 0.01 in 299.0 W/m2 RA
11:11 35.9 °F 24.5 °F 29.98 in Calm   1.2 mph 63 % 0.01 in 346.0 W/m2 RA
11:17 36.1 °F 23.1 °F 29.99 in West 1.9 mph 3.5 mph 59 % 0.01 in 272.0 W/m2 SCT
11:22 36.2 °F 22.4 °F 29.99 in West 4.3 mph 8.1 mph 57 % 0.01 in 471.0 W/m2 CLR
11:27 36.2 °F 22.4 °F 29.99 in West 2.6 mph 3.5 mph 57 % 0.01 in 294.0 W/m2 SCT
11:32 36.3 °F 22.1 °F 29.99 in West 2.2 mph 3.5 mph 56 % 0.01 in 262.0 W/m2 SCT
11:37 36.3 °F 22.1 °F 29.99 in West 4.2 mph 6.9 mph 56 % 0.01 in 313.0 W/m2 SCT
11:42 36.4 °F 22.6 °F 29.98 in WSW 2.7 mph 3.5 mph 57 % 0.01 in 526.0 W/m2 CLR
11:47 36.7 °F 22.5 °F 29.98 in West 2.3 mph 3.5 mph 56 % 0.01 in 295.0 W/m2 SCT
11:52 37.1 °F 22.8 °F 29.98 in West 2.1 mph 3.5 mph 56 % 0.01 in 796.0 W/m2 CLR
11:57 37.5 °F 23.2 °F 29.98 in West 1.0 mph 3.0 mph 56 % 0.01 in 703.0 W/m2 CLR
12:02 38.8 °F 23.6 °F 29.96 in Calm     54 % 0.02 in 881.0 W/m2 RA
12:07 39.4 °F 23.2 °F 29.96 in West 1.1 mph 3.5 mph 52 % 0.01 in 782.0 W/m2 RA
12:12 39.4 °F 22.8 °F 29.96 in WSW 2.8 mph 3.5 mph 51 % 0.02 in 889.0 W/m2 RA
12:17 39.7 °F 23.0 °F 29.95 in West 1.3 mph 3.0 mph 51 % 0.02 in 631.0 W/m2 RA
12:22 39.4 °F 22.8 °F 29.94 in Calm   2.3 mph 51 % 0.03 in 499.0 W/m2 RA
12:27 39.1 °F 22.5 °F 29.94 in West 0.2 mph 2.0 mph 51 % 0.04 in 418.0 W/m2 RA
12:32 39.3 °F 23.6 °F 29.94 in West 0.5 mph 2.3 mph 53 % 0.04 in 489.0 W/m2 RA
12:37 39.6 °F 23.9 °F 29.94 in WNW 0.1 mph 1.2 mph 53 % 0.05 in 318.0 W/m2 RA
12:42 39.5 °F 23.8 °F 29.94 in NW 2.2 mph 3.5 mph 53 % 0.05 in 297.0 W/m2 RA
12:47 39.6 °F 23.9 °F 29.94 in WNW 2.0 mph 3.5 mph 53 % 0.06 in 338.0 W/m2 RA
12:52 39.5 °F 24.2 °F 29.94 in WNW 0.5 mph 3.5 mph 54 % 0.06 in 294.0 W/m2 RA
12:57 39.6 °F 23.4 °F 29.94 in WNW 1.6 mph 3.5 mph 52 % 0.07 in 290.0 W/m2 RA
13:02 39.7 °F 24.0 °F 29.94 in WNW 1.2 mph 3.5 mph 53 % 0.06 in 294.0 W/m2 RA
13:07 39.9 °F 23.2 °F 29.94 in Calm     51 % 0.06 in 309.0 W/m2 FEW
13:12 40.0 °F 23.3 °F 29.94 in WNW 0.1 mph   51 % 0.06 in 309.0 W/m2 RA
13:17 39.9 °F 23.2 °F 29.94 in Calm   2.3 mph 51 % 0.06 in 274.0 W/m2 RA
13:22 39.9 °F 23.7 °F 29.94 in SW 2.7 mph 3.5 mph 52 % 0.05 in 230.0 W/m2 BKN
13:27 40.2 °F 24.0 °F 29.93 in SW 1.2 mph 3.5 mph 52 % 0.05 in 221.0 W/m2 RA
13:32 40.2 °F 24.0 °F 29.94 in WSW 2.5 mph 3.5 mph 52 % 0.05 in 288.0 W/m2 RA
13:37 40.1 °F 23.9 °F 29.93 in WSW 1.7 mph 3.5 mph 52 % 0.04 in 239.0 W/m2 SCT
13:42 40.2 °F 24.4 °F 29.93 in Calm   2.3 mph 53 % 0.04 in 283.0 W/m2 SCT
13:47 40.4 °F 24.6 °F 29.93 in WSW 0.3 mph 2.3 mph 53 % 0.04 in 253.0 W/m2 RA
13:52 40.4 °F 24.6 °F 29.93 in WSW 0.6 mph 3.5 mph 53 % 0.04 in 216.0 W/m2 RA
13:57 40.8 °F 25.4 °F 29.94 in Calm   1.2 mph 54 % 0.03 in 557.0 W/m2 CLR
14:02 41.6 °F 25.3 °F 29.94 in WSW 0.1 mph 1.2 mph 52 % 0.03 in 608.0 W/m2 CLR
14:07 41.9 °F 25.5 °F 29.93 in WSW 0.1 mph 1.2 mph 52 % 0.04 in 497.0 W/m2 RA
14:12 42.5 °F 25.6 °F 29.94 in West 1.1 mph 3.5 mph 51 % 0.03 in 548.0 W/m2 RA
14:17 42.5 °F 25.6 °F 29.94 in West 1.5 mph 2.3 mph 51 % 0.03 in 443.0 W/m2 CLR
14:22 42.6 °F 25.7 °F 29.94 in SW 2.0 mph 4.0 mph 51 % 0.04 in 524.0 W/m2 RA
14:27 42.9 °F 26.0 °F 29.94 in WSW 1.6 mph 3.5 mph 51 % 0.03 in 506.0 W/m2 RA
14:32 42.9 °F 25.5 °F 29.94 in West 6.6 mph 8.1 mph 50 % 0.04 in 243.0 W/m2 RA
14:37 42.5 °F 25.1 °F 29.94 in WSW 4.1 mph 6.9 mph 50 % 0.04 in 318.0 W/m2 RA
14:42 42.9 °F 26.0 °F 29.94 in WSW 4.3 mph 5.8 mph 51 % 0.04 in 380.0 W/m2 CLR
14:47 43.1 °F 25.7 °F 29.94 in SW 2.8 mph 3.5 mph 50 % 0.03 in 487.0 W/m2 CLR
14:52 43.2 °F 25.3 °F 29.95 in SSW 3.7 mph 6.9 mph 49 % 0.04 in 429.0 W/m2 RA
14:57 43.3 °F 26.4 °F 29.95 in SW 2.0 mph 6.0 mph 51 % 0.04 in 271.0 W/m2 RA
15:02 43.3 °F 25.9 °F 29.96 in WSW 2.3 mph 3.5 mph 50 % 0.04 in 232.0 W/m2 FEW
15:08 43.1 °F 26.2 °F 29.96 in SW 1.2 mph 3.5 mph 51 % 0.03 in 199.0 W/m2 FEW
15:13 43.1 °F 26.7 °F 29.96 in SW 1.0 mph 2.3 mph 52 % 0.04 in 241.0 W/m2 RA
15:18 43.2 °F 26.3 °F 29.96 in SW 1.7 mph 3.5 mph 51 % 0.04 in 345.0 W/m2 RA
15:23 43.4 °F 26.9 °F 29.96 in SSW 1.5 mph 1.5 mph 52 % 0.03 in 322.0 W/m2 CLR
15:28 44.0 °F 27.0 °F 29.96 in SSW 4.5 mph 6.0 mph 51 % 0.03 in 308.0 W/m2 CLR
15:33 43.9 °F 26.9 °F 29.96 in South 3.3 mph 5.8 mph 51 % 0.02 in 283.0 W/m2 CLR
15:38 43.6 °F 26.6 °F 29.96 in SSW 4.4 mph 5.8 mph 51 % 0.03 in 258.0 W/m2 RA
15:43 43.3 °F 26.4 °F 29.96 in SSW 2.5 mph 3.5 mph 51 % 0.03 in 236.0 W/m2 RA
15:48 43.4 °F 26.5 °F 29.96 in SSW 0.4 mph 1.0 mph 51 % 0.03 in 243.0 W/m2 CLR
15:53 43.7 °F 26.7 °F 29.96 in Calm   2.3 mph 51 % 0.02 in 236.0 W/m2 CLR
15:58 43.6 °F 26.2 °F 29.96 in SW 0.1 mph 1.2 mph 50 % 0.02 in 227.0 W/m2 CLR
16:03 43.7 °F 26.3 °F 29.97 in SW 0.4 mph 2.3 mph 50 % 0.02 in 211.0 W/m2 CLR
16:08 43.8 °F 26.3 °F 29.96 in SW 0.5 mph 2.3 mph 50 % 0.02 in 181.0 W/m2 CLR
16:13 43.9 °F 26.4 °F 29.96 in SW 2.1 mph 3.5 mph 50 % 0.01 in 167.0 W/m2 CLR
16:18 44.2 °F 26.7 °F 29.97 in SW 1.0 mph 3.5 mph 50 % 0.01 in 197.0 W/m2 CLR
16:23 44.5 °F 27.0 °F 29.97 in Calm     50 % 0.01 in 91.0 W/m2 FEW
16:28 44.3 °F 26.8 °F 29.97 in SW 1.1 mph 3.5 mph 50 % 0.01 in 77.0 W/m2 FEW
16:33 44.1 °F 27.1 °F 29.97 in Calm     51 % 0.01 in 54.0 W/m2 BKN
16:38 44.0 °F 27.0 °F 29.97 in Calm     51 % 0.00 in 47.0 W/m2 BKN
16:43 43.9 °F 26.9 °F 29.97 in Calm     51 % 0.00 in 67.0 W/m2 FEW
16:48 44.1 °F 27.1 °F 29.97 in SW 1.1 mph 2.3 mph 51 % 0.00 in 40.0 W/m2 SCT
16:53 44.0 °F 27.5 °F 29.97 in Calm     52 % 0.00 in 44.0 W/m2 FEW
16:58 43.9 °F 27.9 °F 29.98 in Calm     53 % 0.00 in 33.0 W/m2 SCT
17:03 43.8 °F 27.8 °F 29.97 in Calm     53 % 0.00 in 28.0 W/m2 FEW
17:08 43.3 °F 27.8 °F 29.98 in Calm     54 % 0.00 in 26.0 W/m2 FEW
17:13 43.3 °F 27.8 °F 29.98 in Calm     54 % 0.00 in 19.0 W/m2 FEW
17:18 43.3 °F 27.3 °F 29.98 in Calm     53 % 0.00 in 12.0 W/m2 FEW
17:23 42.9 °F 27.8 °F 29.98 in Calm     55 % 0.00 in 9.0 W/m2 CLR
17:28 42.4 °F 28.7 °F 29.98 in Calm     58 % 0.00 in 5.0 W/m2 CLR
17:33 41.6 °F 28.3 °F 29.98 in Calm     59 % 0.00 in 0.0 W/m2 CLR
17:38 41.5 °F 28.2 °F 29.98 in Calm     59 % 0.00 in 0.0 W/m2 CLR
17:43 41.5 °F 28.2 °F 29.99 in Calm     59 % 0.00 in 0.0 W/m2 CLR
17:48 41.1 °F 28.3 °F 29.99 in Calm     60 % 0.00 in 0.0 W/m2 CLR
17:53 40.5 °F 28.5 °F 29.99 in Calm     62 % 0.00 in 0.0 W/m2 CLR
17:58 39.9 °F 28.3 °F 29.99 in Calm     63 % 0.00 in 0.0 W/m2 CLR
18:03 39.9 °F 28.7 °F 30.00 in Calm     64 % 0.00 in 0.0 W/m2 CLR
18:08 39.5 °F 28.7 °F 30.00 in Calm     65 % 0.00 in 0.0 W/m2 CLR
18:13 38.9 °F 28.1 °F 30.00 in Calm     65 % 0.00 in 0.0 W/m2 CLR
18:18 38.7 °F 28.3 °F 30.00 in Calm     66 % 0.00 in 0.0 W/m2 CLR
18:23 38.7 °F 28.7 °F 30.00 in Calm     67 % 0.00 in 0.0 W/m2 CLR
18:28 38.5 °F 28.5 °F 30.00 in Calm     67 % 0.00 in 0.0 W/m2 CLR
18:33 38.0 °F 28.4 °F 30.00 in Calm     68 % 0.00 in 0.0 W/m2 CLR
18:39 37.7 °F 28.4 °F 30.00 in Calm     69 % 0.00 in 0.0 W/m2 CLR
18:44 37.8 °F 28.5 °F 30.01 in Calm     69 % 0.00 in 0.0 W/m2 CLR
18:49 37.6 °F 28.3 °F 30.00 in Calm     69 % 0.00 in 0.0 W/m2 CLR
18:54 37.4 °F 28.5 °F 30.01 in Calm     70 % 0.00 in 0.0 W/m2 CLR
18:59 37.3 °F 28.4 °F 30.01 in Calm     70 % 0.00 in 0.0 W/m2 CLR
19:04 37.2 °F 28.7 °F 30.01 in Calm     71 % 0.00 in 0.0 W/m2 CLR
19:09 37.5 °F 28.9 °F 30.01 in Calm     71 % 0.00 in 0.0 W/m2 CLR
19:14 37.5 °F 28.9 °F 30.02 in Calm     71 % 0.00 in 0.0 W/m2 CLR
19:19 37.6 °F 29.0 °F 30.03 in Calm     71 % 0.00 in 0.0 W/m2 CLR
19:24 37.4 °F 28.9 °F 30.03 in Calm     71 % 0.00 in 0.0 W/m2 CLR
19:29 37.4 °F 29.2 °F 30.03 in Calm     72 % 0.00 in 0.0 W/m2 CLR
19:34 37.5 °F 29.6 °F 30.03 in Calm     73 % 0.00 in 0.0 W/m2 CLR
19:39 37.3 °F 29.4 °F 30.03 in Calm     73 % 0.00 in 0.0 W/m2 CLR
19:44 37.2 °F 29.3 °F 30.03 in Calm     73 % 0.00 in 0.0 W/m2 CLR
19:49 37.2 °F 29.7 °F 30.03 in Calm     74 % 0.00 in 0.0 W/m2 CLR
19:54 37.2 °F 29.7 °F 30.04 in Calm     74 % 0.00 in 0.0 W/m2 CLR
19:59 37.0 °F 29.8 °F 30.04 in Calm     75 % 0.00 in 0.0 W/m2 CLR
20:04 37.2 °F 30.0 °F 30.05 in Calm     75 % 0.00 in 0.0 W/m2 CLR
20:09 37.2 °F 30.0 °F 30.04 in Calm     75 % 0.00 in 0.0 W/m2 CLR
20:14 37.0 °F 30.1 °F 30.04 in Calm     76 % 0.00 in 0.0 W/m2 CLR
20:19 36.9 °F 30.0 °F 30.04 in Calm     76 % 0.00 in 0.0 W/m2 CLR
20:24 36.9 °F 30.0 °F 30.04 in Calm     76 % 0.00 in 0.0 W/m2 CLR
20:29 36.7 °F 29.8 °F 30.05 in Calm     76 % 0.00 in 0.0 W/m2 CLR
20:34 36.7 °F 29.8 °F 30.06 in Calm     76 % 0.00 in 0.0 W/m2 CLR
20:39 36.7 °F 29.8 °F 30.05 in Calm     76 % 0.00 in 0.0 W/m2 CLR
20:44 36.7 °F 29.8 °F 30.06 in Calm     76 % 0.00 in 0.0 W/m2 CLR
20:49 36.5 °F 30.0 °F 30.07 in Calm     77 % 0.00 in 0.0 W/m2 CLR
20:54 36.3 °F 29.8 °F 30.06 in Calm     77 % 0.00 in 0.0 W/m2 CLR
20:59 36.1 °F 29.9 °F 30.06 in Calm   1.2 mph 78 % 0.00 in 0.0 W/m2 CLR
21:04 36.2 °F 30.0 °F 30.06 in Calm     78 % 0.00 in 0.0 W/m2 CLR
21:09 36.2 °F 30.0 °F 30.06 in Calm     78 % 0.00 in 0.0 W/m2 CLR
21:14 36.1 °F 29.9 °F 30.07 in Calm     78 % 0.00 in 0.0 W/m2 CLR
21:19 35.9 °F 29.7 °F 30.07 in Calm     78 % 0.00 in 0.0 W/m2 CLR
21:24 35.9 °F 29.7 °F 30.06 in Calm     78 % 0.00 in 0.0 W/m2 CLR
21:29 35.7 °F 29.8 °F 30.06 in WNW 0.2 mph 1.2 mph 79 % 0.00 in 0.0 W/m2 CLR
21:34 35.8 °F 29.9 °F 30.06 in Calm     79 % 0.00 in 0.0 W/m2 CLR
21:39 35.7 °F 29.8 °F 30.06 in Calm     79 % 0.00 in 0.0 W/m2 CLR
21:44 35.8 °F 29.9 °F 30.07 in Calm     79 % 0.00 in 0.0 W/m2 CLR
21:49 35.9 °F 30.0 °F 30.07 in Calm     79 % 0.00 in 0.0 W/m2 CLR
21:54 35.9 °F 30.0 °F 30.07 in Calm     79 % 0.00 in 0.0 W/m2 CLR
21:59 35.9 °F 30.0 °F 30.07 in Calm     79 % 0.00 in 0.0 W/m2 CLR
22:04 36.1 °F 30.2 °F 30.07 in Calm     79 % 0.00 in 0.0 W/m2 CLR
22:09 36.1 °F 30.2 °F 30.07 in Calm     79 % 0.00 in 0.0 W/m2 CLR
22:14 35.9 °F 30.0 °F 30.07 in Calm     79 % 0.00 in 0.0 W/m2 CLR
22:19 36.0 °F 30.1 °F 30.07 in Calm     79 % 0.00 in 0.0 W/m2 CLR
22:24 36.1 °F 30.2 °F 30.07 in Calm     79 % 0.00 in 0.0 W/m2 CLR
22:29 36.1 °F 30.2 °F 30.07 in Calm     79 % 0.00 in 0.0 W/m2 CLR
22:34 36.1 °F 30.5 °F 30.07 in Calm     80 % 0.00 in 0.0 W/m2 CLR
22:39 36.0 °F 30.4 °F 30.08 in Calm     80 % 0.00 in 0.0 W/m2 CLR
22:44 35.8 °F 30.2 °F 30.07 in Calm     80 % 0.00 in 0.0 W/m2 CLR
22:49 35.6 °F 30.0 °F 30.07 in Calm     80 % 0.00 in 0.0 W/m2 CLR
22:54 35.8 °F 30.2 °F 30.08 in Calm     80 % 0.00 in 0.0 W/m2 CLR
22:59 35.9 °F 30.3 °F 30.08 in Calm     80 % 0.00 in 0.0 W/m2 CLR
23:04 36.0 °F 30.1 °F 30.08 in Calm     79 % 0.00 in 0.0 W/m2 CLR
23:09 36.1 °F 30.2 °F 30.08 in Calm     79 % 0.00 in 0.0 W/m2 CLR
23:14 36.3 °F 30.4 °F 30.08 in Calm     79 % 0.00 in 0.0 W/m2 CLR
23:19 36.3 °F 30.4 °F 30.08 in Calm     79 % 0.00 in 0.0 W/m2 CLR
23:24 36.4 °F 30.5 °F 30.09 in Calm     79 % 0.00 in 0.0 W/m2 CLR
23:29 36.4 °F 30.2 °F 30.09 in Calm     78 % 0.00 in 0.0 W/m2 CLR
23:35 36.5 °F 30.3 °F 30.09 in WNW 2.1 mph 2.3 mph 78 % 0.00 in 0.0 W/m2 CLR
23:40 36.4 °F 29.9 °F 30.08 in WNW 2.6 mph 3.5 mph 77 % 0.00 in 0.0 W/m2 CLR
23:45 36.6 °F 30.1 °F 30.08 in NNW 2.9 mph 3.5 mph 77 % 0.00 in 0.0 W/m2 CLR
23:50 36.8 °F 29.9 °F 30.08 in Calm   2.3 mph 76 % 0.00 in 0.0 W/m2 CLR
23:55 36.9 °F 29.7 °F 30.08 in Calm     75 % 0.00 in 0.0 W/m2 CLR
Air Products Campus Weather
Compliments of Weather Underground - 3.5 mb